Hove, Belgium
Current Conditions -  °F | °C
As of 4:50 PM on Friday 28 Nov 2014 (Local Time) from EBAW Reporting Station
Clear Clear  
Wind Chill:   Ceiling: Unl
Heat Index:   Visibility: 6mi
Dew Point:   Wind: 14mph
Humidity: 76%   Direction: 90°E
Pressure: 29.74"   Gusts: NA
Location:  51.15°N, 4.47°E
Report Text: EBAW 281550Z 09012KT CAVOK 09/05 Q1007 NOSIG
Loading
Personal Weather Stations






























Interactive Weather Map New forecast layout! Learn more

10-Day Weather Forecast

Advertisements
Track Severe Weather on mobile